Time;durP1;ratioP1;P1;durP2;ratioP2;P2;SDS_P1;SDS_P2;PMS_P1;PMS_P2;Temp;Humidity;BMP_temperature;BMP_pressure;BME280_temperature;BME280_humidity;BME280_pressure;Samples;Min_cycle;Max_cycle;Signal;HPM_P1;HPM_P2
2021/12/06 00:03:22;;;;;;;49.47;26.40;;;;;;;-1.03;100.00;97819.28;12815780;23;20104;-83
2021/12/06 00:08:45;;;;;;;50.35;28.17;;;;;;;-0.97;100.00;97823.53;12816944;23;20064;-87
2021/12/06 00:19:52;;;;;;;43.22;23.35;;;;;;;-0.94;100.00;97823.78;12849429;23;20032;-83
2021/12/06 00:25:22;;;;;;;;;;;;;;;;;;;;;
2021/12/06 00:30:23;;;;;;;36.63;20.70;;;;;;;-1.04;100.00;97836.13;12801923;23;20327;-81
2021/12/06 00:35:24;;;;;;;34.38;20.10;;;;;;;-0.99;100.00;97836.97;12823155;23;20031;-84
2021/12/06 00:40:45;;;;;;;47.83;22.55;;;;;;;-1.00;100.00;97837.22;12823720;23;20020;-82
2021/12/06 00:45:54;;;;;;;37.33;20.40;;;;;;;-1.08;100.00;97849.03;12842301;23;20025;-83
2021/12/06 00:51:02;;;;;;;30.33;18.40;;;;;;;-1.05;100.00;97859.06;12813558;23;20021;-82
2021/12/06 00:56:05;;;;;;;33.40;20.13;;;;;;;-1.03;100.00;97872.75;12765886;23;20025;-82
2021/12/06 01:01:14;;;;;;;32.58;19.60;;;;;;;-0.90;100.00;97861.75;12811153;23;20021;-81
2021/12/06 01:06:32;;;;;;;35.35;18.73;;;;;;;-0.84;100.00;97861.75;12764289;23;20021;-81
2021/12/06 01:11:33;;;;;;;22.65;15.02;;;;;;;-0.93;100.00;97870.16;12810396;23;20068;-84
2021/12/06 01:16:34;;;;;;;36.55;18.02;;;;;;;-0.91;100.00;97875.19;12836556;23;20005;-81
2021/12/06 01:21:51;;;;;;;30.88;17.98;;;;;;;-0.90;100.00;97876.78;12828993;23;20013;-82
2021/12/06 01:28:22;;;;;;;25.33;16.45;;;;;;;-0.78;100.00;97879.97;12828619;23;20028;-85
2021/12/06 01:43:33;;;;;;;23.80;15.23;;;;;;;-0.94;100.00;97888.84;12844823;23;20554;-85
2021/12/06 01:48:39;;;;;;;31.20;17.17;;;;;;;-0.95;100.00;97885.44;12810008;23;20005;-82
2021/12/06 01:54:03;;;;;;;22.42;14.32;;;;;;;-0.89;100.00;97887.03;12816528;23;20029;-84
2021/12/06 01:59:07;;;;;;;25.02;14.75;;;;;;;-0.96;100.00;97889.13;12843822;23;20015;-86
2021/12/06 02:04:15;;;;;;;25.75;14.10;;;;;;;-0.77;100.00;97886.00;12819437;23;20024;-81
2021/12/06 02:09:19;;;;;;;19.35;12.60;;;;;;;-0.90;100.00;97882.03;12780219;23;20708;-81
2021/12/06 02:14:30;;;;;;;22.67;14.35;;;;;;;-0.96;100.00;97888.31;12805715;23;20052;-81
2021/12/06 02:19:39;;;;;;;24.08;14.52;;;;;;;-0.97;100.00;97887.53;12761110;23;20077;-83
2021/12/06 02:25:06;;;;;;;19.75;13.43;;;;;;;-0.96;100.00;97889.13;12815471;23;20172;-84
2021/12/06 02:30:12;;;;;;;21.52;15.10;;;;;;;-0.97;100.00;97897.28;12819052;23;20021;-82
2021/12/06 02:35:33;;;;;;;20.02;13.20;;;;;;;-0.83;100.00;97897.56;12828043;23;20057;-84
2021/12/06 02:40:43;;;;;;;;;;;;;;;-0.79;100.00;97901.31;12812120;23;20390;-82
2021/12/06 02:45:55;;;;;;;24.58;15.25;;;;;;;-0.87;100.00;97902.59;12842737;23;19899;-85
2021/12/06 02:51:25;;;;;;;30.10;17.52;;;;;;;-0.87;100.00;97902.59;12794111;23;20084;-83
2021/12/06 02:57:06;;;;;;;26.17;16.75;;;;;;;-0.79;100.00;97912.63;12836230;23;20035;-81
2021/12/06 03:02:21;;;;;;;26.48;16.63;;;;;;;-0.65;100.00;97915.56;12814743;23;20418;-81
2021/12/06 03:07:28;;;;;;;28.67;17.60;;;;;;;-0.69;100.00;97911.88;12829999;23;20067;-81
2021/12/06 03:12:30;;;;;;;27.83;16.85;;;;;;;-0.82;100.00;97918.41;12819186;23;20072;-81
2021/12/06 03:17:49;;;;;;;24.73;16.23;;;;;;;-0.78;100.00;97934.50;12839042;23;20115;-80
2021/12/06 03:22:52;;;;;;;29.70;18.30;;;;;;;-0.83;100.00;97945.00;12843627;23;20005;-80
2021/12/06 03:27:54;;;;;;;28.02;18.02;;;;;;;-0.76;100.00;97946.34;12845375;23;20032;-82
2021/12/06 03:32:57;;;;;;;31.42;18.75;;;;;;;-0.65;100.00;97960.34;12809014;23;20013;-80
2021/12/06 03:37:59;;;;;;;31.85;19.10;;;;;;;-0.71;100.00;97964.03;12786420;23;20028;-81
2021/12/06 03:43:05;;;;;;;;;;;;;;;-0.62;100.00;97967.78;12793635;23;20088;-83
2021/12/06 03:48:05;;;;;;;28.77;17.35;;;;;;;-0.57;100.00;97973.03;12765647;23;19979;-83
2021/12/06 03:53:07;;;;;;;24.73;15.88;;;;;;;-0.62;100.00;97971.19;12806203;23;20081;-84
2021/12/06 03:58:13;;;;;;;26.52;15.85;;;;;;;-0.66;100.00;97972.75;12833735;23;20051;-79
2021/12/06 04:03:26;;;;;;;28.65;16.85;;;;;;;-0.56;100.00;97985.16;12838159;23;20036;-81
2021/12/06 04:08:31;;;;;;;24.55;16.83;;;;;;;-0.58;100.00;97979.38;12844009;23;20024;-80
2021/12/06 04:13:42;;;;;;;;;;;;;;;-0.61;100.00;97983.31;12817992;23;20017;-80
2021/12/06 04:18:45;;;;;;;26.33;15.77;;;;;;;-0.49;100.00;97985.72;12805701;23;19994;-82
2021/12/06 04:23:53;;;;;;;23.45;15.52;;;;;;;-0.46;100.00;97993.09;12806495;23;20012;-80
2021/12/06 04:29:15;;;;;;;21.35;14.82;;;;;;;-0.55;100.00;97994.66;12772917;23;20001;-84
2021/12/06 04:39:56;;;;;;;23.20;14.00;;;;;;;-0.38;100.00;98018.97;12794944;23;19939;-83
2021/12/06 04:45:23;;;;;;;22.63;13.73;;;;;;;-0.47;100.00;98025.00;12768533;23;20733;-83
2021/12/06 04:50:48;;;;;;;;;;;;;;;;;;;;;
2021/12/06 04:56:11;;;;;;;21.20;12.70;;;;;;;-0.61;100.00;98035.25;12823678;23;20085;-80
2021/12/06 05:01:24;;;;;;;26.20;14.68;;;;;;;-0.59;100.00;98041.84;12764357;23;20029;-83
2021/12/06 05:07:03;;;;;;;40.38;15.73;;;;;;;-0.48;100.00;98053.22;12766963;23;20025;-83
2021/12/06 05:12:52;;;;;;;25.73;14.18;;;;;;;-0.53;100.00;98052.41;12796445;23;20021;-83
2021/12/06 05:23:37;;;;;;;21.98;14.73;;;;;;;-0.41;100.00;98064.31;12796792;23;20021;-82
2021/12/06 05:28:47;;;;;;;26.90;14.82;;;;;;;-0.45;100.00;98068.53;12787881;23;20029;-82
2021/12/06 05:34:17;;;;;;;30.95;16.75;;;;;;;-0.31;100.00;98074.91;12809556;23;20028;-83
2021/12/06 05:44:42;;;;;;;31.98;17.10;;;;;;;-0.28;100.00;98092.84;12840500;23;20009;-83
2021/12/06 05:49:45;;;;;;;32.17;17.33;;;;;;;-0.27;100.00;98085.75;12775831;23;20555;-83
2021/12/06 05:55:15;;;;;;;36.53;17.73;;;;;;;-0.46;100.00;98095.91;12802230;23;20014;-82
2021/12/06 06:00:46;;;;;;;;;;;;;;;;;;;;;
2021/12/06 06:06:05;;;;;;;45.25;19.02;;;;;;;-0.30;100.00;98110.78;12768775;23;20131;-82
2021/12/06 06:11:23;;;;;;;38.25;17.63;;;;;;;-0.35;100.00;98123.16;12777632;23;20016;-84
2021/12/06 06:22:56;;;;;;;38.15;17.83;;;;;;;-0.18;100.00;98131.69;12777203;23;20029;-83
2021/12/06 06:28:24;;;;;;;39.58;19.30;;;;;;;-0.19;100.00;98135.34;12744919;23;20053;-82
2021/12/06 06:33:26;;;;;;;31.10;16.50;;;;;;;-0.11;100.00;98139.34;12784937;23;20068;-81
2021/12/06 06:38:45;;;;;;;30.67;16.13;;;;;;;-0.35;100.00;98142.41;12766291;23;20045;-83
2021/12/06 06:43:53;;;;;;;28.27;16.07;;;;;;;-0.34;100.00;98148.47;12737134;23;20068;-84
2021/12/06 06:48:56;;;;;;;35.50;16.67;;;;;;;-0.42;100.00;98162.13;12770864;23;20002;-84
2021/12/06 06:54:23;;;;;;;;;;;;;;;-0.49;100.00;98170.25;12789209;23;20025;-86
2021/12/06 06:59:24;;;;;;;32.00;14.93;;;;;;;-0.50;100.00;98179.22;12763917;23;19920;-83
2021/12/06 07:04:54;;;;;;;31.20;16.63;;;;;;;-0.57;100.00;98181.25;12737331;23;20029;-83
2021/12/06 07:09:56;;;;;;;30.92;16.45;;;;;;;-0.24;100.00;98195.22;12758537;23;20068;-83
2021/12/06 07:15:26;;;;;;;30.55;16.27;;;;;;;-0.26;100.00;98202.59;12764844;23;20104;-84
2021/12/06 07:20:27;;;;;;;32.03;17.17;;;;;;;-0.30;100.00;98210.19;12712497;23;20044;-75
2021/12/06 07:25:29;;;;;;;31.80;17.17;;;;;;;-0.22;100.00;98211.56;12706509;23;20073;-77
2021/12/06 07:30:32;;;;;;;33.53;18.17;;;;;;;-0.13;100.00;98218.75;12744939;23;20074;-80
2021/12/06 07:35:34;;;;;;;32.50;16.40;;;;;;;-0.12;100.00;98227.44;12783301;23;20016;-84
2021/12/06 07:40:39;;;;;;;31.95;16.63;;;;;;;-0.04;100.00;98224.34;12787764;23;20065;-88
2021/12/06 07:45:52;;;;;;;36.10;17.05;;;;;;;-0.22;100.00;98227.38;12786661;23;20032;-83
2021/12/06 07:51:05;;;;;;;30.75;15.45;;;;;;;-0.07;100.00;98241.47;12773181;23;20033;-87
2021/12/06 07:56:22;;;;;;;31.00;14.65;;;;;;;-0.05;100.00;98243.84;12734418;23;20080;-85
2021/12/06 08:01:33;;;;;;;69.50;19.65;;;;;;;-0.13;100.00;98253.03;12807066;23;20087;-88
2021/12/06 08:06:46;;;;;;;37.05;15.73;;;;;;;0.09;100.00;98257.38;12847651;23;20017;-86
2021/12/06 08:11:54;;;;;;;36.05;16.38;;;;;;;0.11;100.00;98256.09;12818358;23;20124;-86
2021/12/06 08:48:14;;;;;;;39.20;17.88;;;;;;;0.41;100.00;98279.22;12846907;23;20025;-87
2021/12/06 08:53:41;;;;;;;53.00;18.10;;;;;;;0.42;100.00;98280.78;12844600;23;20028;-83
2021/12/06 08:59:06;;;;;;;32.38;16.70;;;;;;;0.26;100.00;98293.09;12801826;23;20306;-84
2021/12/06 09:04:56;;;;;;;36.20;18.02;;;;;;;0.47;100.00;98298.53;12808566;23;20129;-83
2021/12/06 09:10:25;;;;;;;31.83;16.65;;;;;;;0.72;100.00;98306.53;12831633;23;20049;-83
2021/12/06 09:15:36;;;;;;;40.78;16.90;;;;;;;0.50;100.00;98312.00;12838114;23;20035;-87
2021/12/06 09:21:32;;;;;;;31.25;16.88;;;;;;;0.91;100.00;98314.78;12849137;23;20013;-85
2021/12/06 09:26:54;;;;;;;29.27;15.82;;;;;;;0.85;100.00;98303.44;12850449;23;19997;-87
2021/12/06 09:43:43;;;;;;;24.55;13.45;;;;;;;1.54;100.00;98291.66;12651703;23;20096;-84
2021/12/06 09:49:37;;;;;;;;;;;;;;;;;;;;;
2021/12/06 09:56:12;;;;;;;;;;;;;;;;;;;;;
2021/12/06 10:01:53;;;;;;;23.02;13.38;;;;;;;1.74;100.00;98290.09;12693745;23;20045;-84
2021/12/06 10:06:59;;;;;;;22.50;13.02;;;;;;;1.62;100.00;98285.06;12814578;23;20040;-85
2021/12/06 10:12:58;;;;;;;;;;;;;;;;;;;;;
2021/12/06 10:18:10;;;;;;;21.45;12.20;;;;;;;1.78;100.00;98293.81;12815503;23;20021;-84
2021/12/06 10:23:41;;;;;;;18.88;11.10;;;;;;;1.88;100.00;98281.38;12816275;23;20044;-84
2021/12/06 10:29:09;;;;;;;20.80;11.80;;;;;;;2.12;100.00;98260.44;12815380;23;20044;-88
2021/12/06 10:35:10;;;;;;;20.63;12.93;;;;;;;2.23;100.00;98263.84;12835030;23;20122;-84
2021/12/06 10:40:46;;;;;;;15.43;9.13;;;;;;;2.21;100.00;98256.19;12812625;23;20394;-87
2021/12/06 10:46:16;;;;;;;17.08;12.02;;;;;;;2.21;100.00;98250.09;12850111;23;20065;-85
2021/12/06 10:52:06;;;;;;;15.55;10.82;;;;;;;2.59;100.00;98243.34;12847586;23;20032;-84
2021/12/06 10:57:57;;;;;;;15.57;10.68;;;;;;;2.72;100.00;98242.72;12853617;23;20073;-86
2021/12/06 11:03:40;;;;;;;15.77;10.80;;;;;;;2.94;100.00;98230.97;12853963;23;20053;-85
2021/12/06 11:09:37;;;;;;;16.73;10.77;;;;;;;3.18;100.00;98231.06;12832747;23;20044;-82
2021/12/06 11:14:53;;;;;;;15.57;9.73;;;;;;;3.12;100.00;98223.16;12835090;23;20327;-83
2021/12/06 11:19:57;;;;;;;14.30;9.60;;;;;;;2.95;100.00;98222.75;12833177;23;20024;-81
2021/12/06 11:25:03;;;;;;;17.90;10.85;;;;;;;2.77;100.00;98229.47;12809748;23;20514;-83
2021/12/06 11:30:11;;;;;;;16.38;11.32;;;;;;;2.79;100.00;98232.63;12830018;23;20020;-83
2021/12/06 11:35:24;;;;;;;13.43;10.35;;;;;;;3.22;100.00;98227.63;12818969;23;20021;-83
2021/12/06 11:40:33;;;;;;;18.80;12.18;;;;;;;3.09;100.00;98226.34;12799924;23;20013;-84
2021/12/06 11:45:59;;;;;;;21.27;12.00;;;;;;;3.07;100.00;98225.84;12819953;23;20017;-83
2021/12/06 11:51:19;;;;;;;17.80;11.40;;;;;;;3.03;100.00;98227.47;12814144;23;20017;-83
2021/12/06 11:56:31;;;;;;;21.65;13.70;;;;;;;2.60;100.00;98226.38;12815403;23;20079;-83
2021/12/06 12:01:59;;;;;;;17.52;12.02;;;;;;;2.94;100.00;98231.78;12788942;23;20020;-83
2021/12/06 12:07:05;;;;;;;20.45;11.80;;;;;;;3.02;100.00;98222.44;12812856;23;20060;-82
2021/12/06 12:12:22;;;;;;;;;;;;;;;;;;;;;
2021/12/06 12:17:58;;;;;;;23.65;13.25;;;;;;;3.02;100.00;98227.75;12843606;23;20033;-81
2021/12/06 12:23:10;;;;;;;19.00;11.18;;;;;;;3.24;100.00;98222.03;12830438;23;20056;-82
2021/12/06 12:28:34;;;;;;;;;;;;;;;;;;;;;
2021/12/06 12:34:17;;;;;;;15.10;10.00;;;;;;;3.22;100.00;98227.63;12836355;23;20111;-81
2021/12/06 12:40:19;;;;;;;19.92;11.43;;;;;;;3.21;100.00;98228.69;12821837;23;20348;-83
2021/12/06 12:45:49;;;;;;;14.55;9.82;;;;;;;3.23;100.00;98225.75;12820198;23;20025;-83
2021/12/06 12:51:19;;;;;;;15.32;9.57;;;;;;;3.12;100.00;98217.88;12814533;23;20032;-82
2021/12/06 12:57:00;;;;;;;14.57;9.77;;;;;;;3.33;100.00;98215.06;12820183;23;20407;-85
2021/12/06 13:02:28;;;;;;;17.70;10.93;;;;;;;3.32;100.00;98216.94;12805950;23;20025;-84
2021/12/06 13:07:41;;;;;;;15.55;9.82;;;;;;;3.23;100.00;98223.88;12833439;23;20028;-83
2021/12/06 13:13:13;;;;;;;19.88;11.40;;;;;;;2.95;100.00;98224.59;12816382;23;20412;-81
2021/12/06 13:19:23;;;;;;;16.27;10.32;;;;;;;2.82;100.00;98226.78;12826124;23;20052;-82
2021/12/06 13:24:51;;;;;;;18.73;11.25;;;;;;;2.78;100.00;98223.09;12844850;23;20142;-85
2021/12/06 13:30:20;;;;;;;17.08;10.35;;;;;;;2.54;100.00;98215.00;12843209;23;20028;-82
2021/12/06 13:35:29;;;;;;;17.48;10.65;;;;;;;2.66;100.00;98208.59;12836954;23;20012;-84
2021/12/06 13:40:41;;;;;;;21.05;10.60;;;;;;;2.67;100.00;98210.97;12826602;23;20028;-81
2021/12/06 13:46:06;;;;;;;21.70;11.63;;;;;;;2.66;100.00;98211.25;12822598;23;20104;-79
2021/12/06 13:51:39;;;;;;;17.33;10.90;;;;;;;2.48;100.00;98207.34;12825159;23;20025;-80
2021/12/06 13:56:59;;;;;;;19.40;11.10;;;;;;;2.53;100.00;98210.75;12825896;23;20067;-86
2021/12/06 14:02:06;;;;;;;22.55;11.30;;;;;;;2.42;100.00;98219.81;12827118;23;20056;-81
2021/12/06 14:07:11;;;;;;;19.30;11.45;;;;;;;2.24;100.00;98223.84;12833541;23;20025;-85
2021/12/06 14:12:17;;;;;;;22.17;12.90;;;;;;;2.21;100.00;98227.03;12835523;23;20027;-83
2021/12/06 14:17:20;;;;;;;19.67;11.18;;;;;;;2.44;100.00;98228.28;12825964;23;20040;-81
2021/12/06 14:22:31;;;;;;;19.58;11.23;;;;;;;2.32;100.00;98234.97;12842004;23;20032;-81
2021/12/06 14:27:36;;;;;;;21.42;10.98;;;;;;;2.30;100.00;98234.44;12845963;23;20043;-83
2021/12/06 14:32:48;;;;;;;18.80;10.80;;;;;;;2.12;100.00;98244.53;12822518;23;20009;-84
2021/12/06 14:37:54;;;;;;;15.90;10.48;;;;;;;2.08;100.00;98253.28;12839671;23;20005;-82
2021/12/06 14:42:58;;;;;;;18.30;11.02;;;;;;;2.07;100.00;98247.19;12839469;23;20021;-83
2021/12/06 14:48:11;;;;;;;21.45;12.52;;;;;;;1.82;100.00;98253.31;12783766;23;20009;-86
2021/12/06 14:53:21;;;;;;;21.30;12.27;;;;;;;1.76;100.00;98243.00;12839115;23;20017;-82
2021/12/06 14:58:39;;;;;;;22.77;11.95;;;;;;;1.84;100.00;98240.63;12823561;23;20048;-82
2021/12/06 15:10:20;;;;;;;25.35;13.93;;;;;;;1.56;100.00;98244.63;12822866;23;20029;-88
2021/12/06 15:15:58;;;;;;;20.95;12.45;;;;;;;1.45;100.00;98245.66;12851853;23;20023;-82
2021/12/06 15:21:00;;;;;;;21.17;12.18;;;;;;;1.39;100.00;98244.88;12849060;23;20348;-81
2021/12/06 15:26:16;;;;;;;21.13;12.60;;;;;;;1.37;100.00;98241.72;12827586;23;20017;-83
2021/12/06 15:31:28;;;;;;;;;;;;;;;;;;;;;
2021/12/06 15:36:30;;;;;;;28.55;13.93;;;;;;;1.30;100.00;98245.66;12809652;23;20021;-84
2021/12/06 15:42:07;;;;;;;23.50;13.50;;;;;;;1.28;100.00;98234.53;12820126;23;20024;-82
2021/12/06 15:47:46;;;;;;;;;;;;;;;;;;;;;
2021/12/06 15:53:00;;;;;;;22.42;13.02;;;;;;;1.08;100.00;98232.66;12816010;23;20048;-83
2021/12/06 15:58:23;;;;;;;23.80;13.55;;;;;;;1.01;100.00;98232.94;12832496;23;20025;-84
2021/12/06 16:03:49;;;;;;;25.83;14.52;;;;;;;0.85;100.00;98240.03;12843951;23;20024;-82
2021/12/06 16:08:52;;;;;;;25.73;14.25;;;;;;;0.81;100.00;98249.50;12813111;23;20134;-82
2021/12/06 16:13:55;;;;;;;28.15;15.15;;;;;;;0.82;100.00;98245.03;12814836;23;20021;-82
2021/12/06 16:18:59;;;;;;;26.43;14.10;;;;;;;0.91;100.00;98258.53;12812817;23;20029;-84
2021/12/06 16:24:06;;;;;;;30.08;16.83;;;;;;;1.00;100.00;98257.75;12819735;23;20044;-82
2021/12/06 16:29:16;;;;;;;29.38;16.30;;;;;;;1.17;100.00;98264.66;12834545;23;20029;-85
2021/12/06 16:34:28;;;;;;;25.27;14.43;;;;;;;1.20;100.00;98261.50;12817207;23;20021;-84
2021/12/06 16:39:32;;;;;;;21.08;13.27;;;;;;;1.13;100.00;98256.47;12786656;23;20099;-80
2021/12/06 16:44:47;;;;;;;23.58;12.68;;;;;;;1.18;100.00;98269.69;12809788;23;20021;-81
2021/12/06 16:49:54;;;;;;;22.83;13.55;;;;;;;1.15;100.00;98267.56;12806472;23;20083;-81
2021/12/06 16:55:24;;;;;;;22.05;14.35;;;;;;;1.15;100.00;98275.50;12795645;23;20025;-80
2021/12/06 17:00:40;;;;;;;23.20;13.17;;;;;;;1.26;100.00;98263.88;12787763;23;20013;-82
2021/12/06 17:05:55;;;;;;;25.10;13.10;;;;;;;1.16;100.00;98255.94;12817570;23;20017;-82
2021/12/06 17:11:17;;;;;;;21.20;12.77;;;;;;;1.19;100.00;98255.44;12817825;23;20009;-79
2021/12/06 17:16:32;;;;;;;21.33;12.75;;;;;;;1.16;100.00;98247.22;12815956;23;20017;-81
2021/12/06 17:21:51;;;;;;;24.65;14.10;;;;;;;1.18;100.00;98248.53;12804667;23;20025;-82
2021/12/06 17:27:02;;;;;;;23.23;13.57;;;;;;;1.18;100.00;98242.47;12840174;23;20036;-83
2021/12/06 17:32:18;;;;;;;22.35;12.20;;;;;;;1.21;100.00;98226.88;12810068;23;20427;-82
2021/12/06 17:37:22;;;;;;;23.08;12.43;;;;;;;1.06;100.00;98214.44;12805430;23;20028;-83
2021/12/06 17:42:27;;;;;;;23.15;11.73;;;;;;;0.92;100.00;98208.09;12823857;23;20051;-82
2021/12/06 17:47:29;;;;;;;22.65;12.07;;;;;;;0.80;100.00;98208.31;12816547;23;20013;-81
2021/12/06 17:52:30;;;;;;;21.05;12.45;;;;;;;0.62;100.00;98206.13;12826190;23;20013;-85
2021/12/06 17:58:04;;;;;;;;;;;;;;;;;;;;;
2021/12/06 18:04:30;;;;;;;25.77;14.50;;;;;;;0.11;100.00;98198.03;12810412;23;20047;-83
2021/12/06 18:10:03;;;;;;;;;;;;;;;;;;;;;
2021/12/06 18:15:58;;;;;;;25.33;14.07;;;;;;;-0.29;100.00;98204.66;12848042;23;20048;-82
2021/12/06 18:21:31;;;;;;;23.92;14.65;;;;;;;-0.47;100.00;98201.63;12846710;23;20017;-81
2021/12/06 18:26:41;;;;;;;26.65;14.70;;;;;;;-0.58;100.00;98195.50;12824326;23;20013;-80
2021/12/06 18:32:20;;;;;;;31.38;15.77;;;;;;;-0.75;100.00;98195.63;12856913;23;20076;-84
2021/12/06 18:37:23;;;;;;;30.15;15.90;;;;;;;-0.92;100.00;98203.66;12828584;23;20029;-83
2021/12/06 18:42:29;;;;;;;28.17;16.63;;;;;;;-1.00;100.00;98216.50;12853532;23;20073;-84
2021/12/06 18:48:17;;;;;;;32.35;16.73;;;;;;;-1.03;100.00;98215.13;12854099;23;20276;-82
2021/12/06 18:53:19;;;;;;;33.65;17.13;;;;;;;-1.13;100.00;98215.03;12854405;23;20001;-85
2021/12/06 18:58:43;;;;;;;32.35;16.77;;;;;;;-1.24;100.00;98219.41;12833371;23;20013;-79
2021/12/06 19:03:46;;;;;;;31.90;16.60;;;;;;;-1.37;100.00;98211.09;12851178;23;20028;-80
2021/12/06 19:08:50;;;;;;;38.15;18.38;;;;;;;-1.49;100.00;98217.28;12783464;23;20025;-83
2021/12/06 19:14:14;;;;;;;35.55;16.95;;;;;;;-1.51;100.00;98208.84;12803021;23;20028;-85
2021/12/06 19:19:41;;;;;;;39.28;19.02;;;;;;;-1.48;100.00;98199.66;12789593;23;20021;-81
2021/12/06 19:24:48;;;;;;;40.80;21.20;;;;;;;-1.52;100.00;98193.31;12829624;23;20096;-82
2021/12/06 19:30:14;;;;;;;37.30;18.17;;;;;;;-1.48;100.00;98192.56;12813815;23;20084;-84
2021/12/06 19:35:32;;;;;;;43.10;20.80;;;;;;;-1.56;100.00;98186.94;12798387;23;20732;-86
2021/12/06 19:40:38;;;;;;;38.42;18.30;;;;;;;-1.64;100.00;98197.94;12818448;23;20036;-78
2021/12/06 19:45:54;;;;;;;37.50;17.77;;;;;;;-1.70;100.00;98196.25;12765759;23;20017;-82
2021/12/06 19:51:02;;;;;;;36.65;19.27;;;;;;;-1.67;100.00;98193.13;12808917;23;20036;-81
2021/12/06 19:56:14;;;;;;;40.33;19.38;;;;;;;-1.58;100.00;98189.81;12828001;23;20043;-82
2021/12/06 20:01:47;;;;;;;42.58;21.13;;;;;;;-1.43;100.00;98191.84;12796740;23;20088;-81
2021/12/06 20:06:55;;;;;;;48.13;23.92;;;;;;;-1.33;100.00;98181.41;12789145;23;20005;-84
2021/12/06 20:12:12;;;;;;;47.75;20.35;;;;;;;-1.19;100.00;98179.97;12799300;23;20041;-82
2021/12/06 20:17:22;;;;;;;43.30;19.95;;;;;;;-1.22;100.00;98190.19;12819720;23;20021;-85
2021/12/06 20:22:26;;;;;;;41.03;20.65;;;;;;;-1.30;100.00;98188.00;12850854;23;20028;-82
2021/12/06 20:27:33;;;;;;;44.63;21.08;;;;;;;-1.27;100.00;98182.28;12823620;23;20005;-85
2021/12/06 20:32:38;;;;;;;39.47;20.30;;;;;;;-1.30;100.00;98174.84;12851132;23;20024;-83
2021/12/06 20:38:13;;;;;;;46.58;20.95;;;;;;;-1.20;100.00;98167.84;12834897;23;20017;-81
2021/12/06 20:43:15;;;;;;;41.78;20.40;;;;;;;-1.16;100.00;98162.88;12825431;23;20052;-82
2021/12/06 20:48:16;;;;;;;48.22;22.02;;;;;;;-1.07;100.00;98158.75;12784227;23;20048;-83
2021/12/06 20:53:20;;;;;;;43.40;21.67;;;;;;;-1.12;100.00;98156.06;12819393;23;20087;-80
2021/12/06 20:58:29;;;;;;;40.85;20.02;;;;;;;-1.08;100.00;98149.25;12844598;23;20032;-84
2021/12/06 21:03:37;;;;;;;38.97;19.40;;;;;;;-0.99;100.00;98144.34;12826050;23;20068;-84
2021/12/06 21:20:29;;;;;;;37.30;19.58;;;;;;;-1.37;100.00;98121.59;12854000;23;20001;-86
2021/12/06 21:25:47;;;;;;;39.20;19.98;;;;;;;-1.44;100.00;98098.91;12850867;23;20020;-85
2021/12/06 21:31:02;;;;;;;43.47;21.20;;;;;;;-1.58;100.00;98097.72;12778493;23;20029;-83
2021/12/06 21:36:27;;;;;;;46.88;22.02;;;;;;;-1.63;100.00;98100.31;12788125;23;20045;-83
2021/12/06 21:41:28;;;;;;;42.92;21.33;;;;;;;-1.70;100.00;98096.28;12761026;23;20022;-83
2021/12/06 21:46:37;;;;;;;44.47;21.20;;;;;;;-1.68;100.00;98086.31;12734636;23;20021;-81
2021/12/06 21:52:13;;;;;;;37.75;19.00;;;;;;;-1.67;100.00;98095.78;12800756;23;20025;-80
2021/12/06 21:57:21;;;;;;;45.90;19.93;;;;;;;-1.72;100.00;98081.56;12820265;23;20020;-85
2021/12/06 22:02:28;;;;;;;41.35;20.10;;;;;;;-1.73;100.00;98089.69;12837985;23;20124;-83
2021/12/06 22:07:35;;;;;;;39.58;18.52;;;;;;;-1.84;100.00;98072.19;12832490;23;20020;-81
2021/12/06 22:12:40;;;;;;;37.88;18.77;;;;;;;-1.94;100.00;98064.19;12834609;23;20028;-80
2021/12/06 22:17:45;;;;;;;41.58;21.13;;;;;;;-1.98;100.00;98053.41;12808030;23;20013;-81
2021/12/06 22:23:31;;;;;;;;;;;;;;;;;;;;;
2021/12/06 22:28:45;;;;;;;44.30;20.13;;;;;;;-1.98;100.00;98034.19;12808690;23;20072;-83
2021/12/06 22:34:02;;;;;;;43.03;19.98;;;;;;;-1.81;100.00;98014.66;12803038;23;20025;-85
2021/12/06 22:39:11;;;;;;;40.33;19.17;;;;;;;-1.75;100.00;98026.78;12831419;23;20024;-83
2021/12/06 22:45:00;;;;;;;40.58;18.40;;;;;;;-1.86;100.00;98004.06;12823850;23;20017;-84
2021/12/06 22:50:15;;;;;;;39.42;18.90;;;;;;;-1.82;100.00;97999.91;12815509;23;20124;-85
2021/12/06 22:55:27;;;;;;;43.47;19.35;;;;;;;-1.89;100.00;97993.25;12800660;23;20040;-83
2021/12/06 23:00:34;;;;;;;41.92;19.08;;;;;;;-1.85;100.00;97984.59;12797396;23;20023;-81
2021/12/06 23:05:35;;;;;;;37.13;18.73;;;;;;;-1.94;100.00;97982.69;12806072;23;20048;-81
2021/12/06 23:10:50;;;;;;;34.53;18.00;;;;;;;-1.94;100.00;97972.16;12719249;23;20013;-82
2021/12/06 23:16:01;;;;;;;35.63;17.52;;;;;;;-2.02;100.00;97962.88;12814592;23;20044;-80
2021/12/06 23:21:03;;;;;;;40.67;19.02;;;;;;;-2.03;100.00;97956.03;12788912;23;20044;-80
2021/12/06 23:26:27;;;;;;;39.83;19.50;;;;;;;-2.07;100.00;97955.75;12825329;23;20024;-84
2021/12/06 23:31:59;;;;;;;36.33;17.60;;;;;;;-2.11;100.00;97954.66;12824061;23;20031;-85
2021/12/06 23:37:44;;;;;;;29.90;15.88;;;;;;;-2.15;100.00;97961.47;12797264;23;20012;-82
2021/12/06 23:48:57;;;;;;;35.22;17.45;;;;;;;-2.27;100.00;97949.50;12848628;23;20028;-83
2021/12/06 23:54:09;;;;;;;31.40;16.85;;;;;;;-2.25;100.00;97948.22;12818070;23;20025;-84
2021/12/06 23:59:10;;;;;;;38.17;17.88;;;;;;;-2.28;100.00;97938.22;12827584;23;20009;-84
